createdAt,value
2022-12-14T00:01:26.553Z,-64
2022-12-14T00:03:53.833Z,-64
2022-12-14T00:06:29.676Z,-64
2022-12-14T00:08:59.368Z,-64
2022-12-14T00:11:26.409Z,-64
2022-12-14T00:13:57.456Z,-64
2022-12-14T00:16:26.177Z,-64
2022-12-14T00:18:54.832Z,-65
2022-12-14T00:21:22.028Z,-64
2022-12-14T00:23:52.872Z,-64
2022-12-14T00:26:24.793Z,-64
2022-12-14T00:28:53.822Z,-64
2022-12-14T00:31:21.731Z,-63
2022-12-14T00:33:50.407Z,-64
2022-12-14T00:36:17.005Z,-63
2022-12-14T00:38:43.786Z,-63
2022-12-14T00:41:11.081Z,-63
2022-12-14T00:43:38.095Z,-63
2022-12-14T00:46:05.076Z,-63
2022-12-14T00:48:32.086Z,-64
2022-12-14T00:50:59.116Z,-64
2022-12-14T00:53:25.659Z,-63
2022-12-14T00:55:52.777Z,-64
2022-12-14T00:58:21.482Z,-64
2022-12-14T01:00:57.732Z,-64
2022-12-14T01:03:24.917Z,-64
2022-12-14T01:05:51.623Z,-63
2022-12-14T01:08:18.106Z,-63
2022-12-14T01:10:44.946Z,-64
2022-12-14T01:13:11.767Z,-64
2022-12-14T01:15:38.374Z,-64
2022-12-14T01:18:05.496Z,-64
2022-12-14T01:20:32.143Z,-64
2022-12-14T01:22:58.653Z,-64
2022-12-14T01:25:26.407Z,-64
2022-12-14T01:27:52.892Z,-63
2022-12-14T01:30:19.802Z,-63
2022-12-14T01:32:47.221Z,-63
2022-12-14T01:35:13.967Z,-64
2022-12-14T01:37:40.447Z,-64
2022-12-14T01:40:07.410Z,-64
2022-12-14T01:42:35.911Z,-64
2022-12-14T01:45:03.818Z,-64
2022-12-14T01:47:38.272Z,-63
2022-12-14T01:50:09.521Z,-64
2022-12-14T01:52:45.771Z,-63
2022-12-14T01:55:24.291Z,-64
2022-12-14T01:57:50.823Z,-64
2022-12-14T02:00:18.132Z,-63
2022-12-14T02:02:54.961Z,-63
2022-12-14T02:05:23.512Z,-64
2022-12-14T02:07:52.543Z,-64
2022-12-14T02:10:19.306Z,-64
2022-12-14T02:12:49.592Z,-64
2022-12-14T02:15:16.862Z,-63
2022-12-14T02:17:46.015Z,-63
2022-12-14T02:20:14.720Z,-64
2022-12-14T02:22:53.069Z,-64
2022-12-14T02:25:50.539Z,-64
2022-12-14T02:28:41.813Z,-64
2022-12-14T02:31:38.911Z,-64
2022-12-14T02:34:15.711Z,-64
2022-12-14T02:36:53.177Z,-64
2022-12-14T02:39:27.711Z,-64
2022-12-14T02:41:57.002Z,-64
2022-12-14T02:44:46.647Z,-64
2022-12-14T02:47:26.487Z,-63
2022-12-14T02:50:07.982Z,-64
2022-12-14T02:52:47.285Z,-63
2022-12-14T02:55:35.576Z,-64
2022-12-14T02:58:07.306Z,-64
2022-12-14T03:00:37.338Z,-63
2022-12-14T03:03:05.892Z,-63
2022-12-14T03:05:33.338Z,-63
2022-12-14T03:08:03.844Z,-63
2022-12-14T03:10:57.959Z,-64
2022-12-14T03:13:31.113Z,-63
2022-12-14T03:16:08.009Z,-64
2022-12-14T03:18:42.795Z,-64
2022-12-14T03:21:15.766Z,-64
2022-12-14T03:23:48.720Z,-63
2022-12-14T03:26:42.884Z,-63
2022-12-14T03:29:20.678Z,-62
2022-12-14T03:31:55.750Z,-64
2022-12-14T03:34:28.443Z,-64
2022-12-14T03:37:13.186Z,-62
2022-12-14T03:39:42.400Z,-63
2022-12-14T03:42:19.276Z,-62
2022-12-14T03:45:19.896Z,-64
2022-12-14T03:47:52.627Z,-64
2022-12-14T03:50:43.749Z,-64
2022-12-14T03:53:25.912Z,-64
2022-12-14T03:56:04.793Z,-64
2022-12-14T03:58:57.197Z,-64
2022-12-14T04:01:49.111Z,-63
2022-12-14T04:04:22.593Z,-64
2022-12-14T04:06:51.858Z,-64
2022-12-14T04:09:54.029Z,-64
2022-12-14T04:12:51.670Z,-64
2022-12-14T04:15:42.967Z,-64
2022-12-14T04:18:32.851Z,-63
2022-12-14T04:21:07.560Z,-63
2022-12-14T04:24:03.379Z,-63
2022-12-14T04:26:35.973Z,-63
2022-12-14T04:29:25.858Z,-63
2022-12-14T04:32:01.882Z,-64
2022-12-14T04:34:31.132Z,-63
2022-12-14T04:37:04.609Z,-64
2022-12-14T04:40:05.356Z,-64
2022-12-14T04:42:36.265Z,-64
2022-12-14T04:45:11.254Z,-65
2022-12-14T04:47:43.878Z,-64
2022-12-14T04:50:21.467Z,-64
2022-12-14T04:53:25.637Z,-63
2022-12-14T04:56:05.382Z,-64
2022-12-14T04:58:32.908Z,-64
2022-12-14T05:01:11.492Z,-62
2022-12-14T05:03:51.550Z,-63
2022-12-14T05:06:20.873Z,-63
2022-12-14T05:09:14.969Z,-64
2022-12-14T05:11:53.959Z,-64
2022-12-14T05:14:47.278Z,-64
2022-12-14T05:17:14.893Z,-64
2022-12-14T05:19:49.319Z,-64
2022-12-14T05:22:17.139Z,-64
2022-12-14T05:24:43.819Z,-64
2022-12-14T05:27:10.417Z,-64
2022-12-14T05:29:36.906Z,-64
2022-12-14T05:32:03.550Z,-64
2022-12-14T05:34:30.873Z,-64
2022-12-14T05:36:59.006Z,-64
2022-12-14T05:39:25.486Z,-64
2022-12-14T05:41:53.370Z,-64
2022-12-14T05:44:20.649Z,-64
2022-12-14T05:46:47.350Z,-64
2022-12-14T05:49:13.837Z,-64
2022-12-14T05:51:40.483Z,-64
2022-12-14T05:54:06.999Z,-64
2022-12-14T05:56:33.507Z,-64
2022-12-14T05:59:00.147Z,-63
2022-12-14T06:01:26.666Z,-64
2022-12-14T06:03:53.510Z,-64
2022-12-14T06:06:20.668Z,-64
2022-12-14T06:08:48.172Z,-64
2022-12-14T06:11:21.050Z,-64
2022-12-14T06:13:47.907Z,-64
2022-12-14T06:16:14.583Z,-64
2022-12-14T06:18:48.739Z,-64
2022-12-14T06:21:17.768Z,-64
2022-12-14T06:23:44.941Z,-64
2022-12-14T06:26:12.683Z,-64
2022-12-14T06:28:40.071Z,-64
2022-12-14T06:31:07.775Z,-63
2022-12-14T06:33:35.208Z,-64
2022-12-14T06:36:03.088Z,-63
2022-12-14T06:38:29.946Z,-62
2022-12-14T06:40:56.707Z,-63
2022-12-14T06:43:27.131Z,-64
2022-12-14T06:45:54.636Z,-65
2022-12-14T06:48:21.622Z,-63
2022-12-14T06:50:48.110Z,-63
2022-12-14T06:53:14.641Z,-62
2022-12-14T06:55:41.377Z,-64
2022-12-14T06:58:12.535Z,-64
2022-12-14T07:00:39.058Z,-65
2022-12-14T07:03:05.642Z,-65
2022-12-14T07:05:33.082Z,-64
2022-12-14T07:07:59.545Z,-65
2022-12-14T07:10:26.078Z,-64
2022-12-14T07:12:52.543Z,-64
2022-12-14T07:15:19.028Z,-64
2022-12-14T07:17:45.566Z,-64
2022-12-14T07:20:12.243Z,-64
2022-12-14T07:22:39.091Z,-65
2022-12-14T07:25:06.172Z,-65
2022-12-14T07:27:32.891Z,-65
2022-12-14T07:29:59.810Z,-65
2022-12-14T07:32:26.403Z,-67
2022-12-14T07:34:52.851Z,-66
2022-12-14T07:37:19.376Z,-66
2022-12-14T07:39:46.014Z,-66
2022-12-14T07:42:12.997Z,-66
2022-12-14T07:44:39.466Z,-66
2022-12-14T07:47:05.961Z,-66
2022-12-14T07:49:32.685Z,-66
2022-12-14T07:51:59.232Z,-65
2022-12-14T07:54:26.637Z,-66
2022-12-14T07:56:53.109Z,-65
2022-12-14T07:59:21.014Z,-64
2022-12-14T08:01:48.124Z,-63
2022-12-14T08:04:17.361Z,-64
2022-12-14T08:06:44.646Z,-63
2022-12-14T08:09:12.043Z,-63
2022-12-14T08:11:39.431Z,-65
2022-12-14T08:14:09.175Z,-63
2022-12-14T08:16:35.725Z,-63
2022-12-14T08:19:03.314Z,-64
2022-12-14T08:21:30.718Z,-63
2022-12-14T08:23:58.134Z,-63
2022-12-14T08:26:31.525Z,-63
2022-12-14T08:28:59.907Z,-63
2022-12-14T08:31:28.277Z,-62
2022-12-14T08:33:55.367Z,-63
2022-12-14T08:36:30.134Z,-62
2022-12-14T08:38:59.634Z,-62
2022-12-14T08:41:27.148Z,-63
2022-12-14T08:43:56.403Z,-62
2022-12-14T08:46:24.123Z,-62
2022-12-14T08:48:52.915Z,-62
2022-12-14T08:51:20.445Z,-62
2022-12-14T08:53:49.818Z,-63
2022-12-14T08:56:19.171Z,-63
2022-12-14T08:58:45.739Z,-63
2022-12-14T09:01:20.253Z,-63
2022-12-14T09:03:47.549Z,-62
2022-12-14T09:06:16.913Z,-62
2022-12-14T09:08:43.553Z,-64
2022-12-14T09:11:15.281Z,-63
2022-12-14T09:13:43.211Z,-63
2022-12-14T09:16:16.040Z,-62
2022-12-14T09:18:43.265Z,-62
2022-12-14T09:21:09.862Z,-63
2022-12-14T09:23:37.391Z,-62
2022-12-14T09:26:09.290Z,-62
2022-12-14T09:28:37.809Z,-62
2022-12-14T09:31:07.448Z,-63
2022-12-14T09:33:35.066Z,-63
2022-12-14T09:36:07.339Z,-62
2022-12-14T09:38:35.954Z,-63
2022-12-14T09:41:07.424Z,-63
2022-12-14T09:43:39.446Z,-63
2022-12-14T09:46:31.024Z,-62
2022-12-14T09:48:58.209Z,-63
2022-12-14T09:51:32.477Z,-63
2022-12-14T09:54:05.721Z,-63
2022-12-14T09:56:33.749Z,-63
2022-12-14T09:59:02.584Z,-63
2022-12-14T10:02:30.753Z,-63
2022-12-14T10:05:07.108Z,-62
2022-12-14T10:07:52.197Z,-63
2022-12-14T10:10:31.902Z,-62
2022-12-14T10:13:32.921Z,-63
2022-12-14T10:16:10.743Z,-63
2022-12-14T10:19:07.225Z,-63
2022-12-14T10:21:42.578Z,-62
2022-12-14T10:24:16.604Z,-63
2022-12-14T10:26:51.425Z,-63
2022-12-14T10:29:57.234Z,-62
2022-12-14T10:32:39.355Z,-62
2022-12-14T10:35:17.696Z,-62
2022-12-14T10:37:48.834Z,-63
2022-12-14T10:40:31.102Z,-62
2022-12-14T10:43:05.234Z,-63
2022-12-14T10:45:55.371Z,-63
2022-12-14T10:48:28.182Z,-63
2022-12-14T10:51:05.130Z,-63
2022-12-14T10:53:42.270Z,-63
2022-12-14T10:56:19.314Z,-63
2022-12-14T10:59:17.538Z,-62
2022-12-14T11:01:47.089Z,-65
2022-12-14T11:04:24.571Z,-62
2022-12-14T11:06:51.250Z,-63
2022-12-14T11:09:23.198Z,-62
2022-12-14T11:11:58.831Z,-63
2022-12-14T11:14:26.543Z,-62
2022-12-14T11:16:53.173Z,-63
2022-12-14T11:19:22.201Z,-62
2022-12-14T11:22:05.322Z,-64
2022-12-14T11:24:31.862Z,-64
2022-12-14T11:27:02.383Z,-64
2022-12-14T11:29:35.653Z,-64
2022-12-14T11:32:04.626Z,-64
2022-12-14T11:34:38.246Z,-64
2022-12-14T11:37:11.806Z,-64
2022-12-14T11:39:41.270Z,-64
2022-12-14T11:42:16.467Z,-64
2022-12-14T11:44:43.047Z,-63
2022-12-14T11:47:15.888Z,-63
2022-12-14T11:49:42.300Z,-62
2022-12-14T11:52:13.062Z,-63
2022-12-14T11:54:42.931Z,-63
2022-12-14T11:57:21.287Z,-62
2022-12-14T11:59:55.172Z,-63
2022-12-14T12:02:30.415Z,-62
2022-12-14T12:05:07.771Z,-62
2022-12-14T12:07:41.309Z,-64
2022-12-14T12:10:14.517Z,-63
2022-12-14T12:12:56.445Z,-63
2022-12-14T12:15:32.516Z,-64
2022-12-14T12:18:11.349Z,-64
2022-12-14T12:20:51.706Z,-63
2022-12-14T12:23:33.958Z,-63
2022-12-14T12:26:07.016Z,-63
2022-12-14T12:28:36.477Z,-60
2022-12-14T12:31:11.103Z,-59
2022-12-14T12:33:59.533Z,-60
2022-12-14T12:36:26.998Z,-59
2022-12-14T12:39:05.475Z,-60
2022-12-14T12:41:40.218Z,-59
2022-12-14T12:44:22.843Z,-60
2022-12-14T12:47:23.435Z,-60
2022-12-14T12:49:45.703Z,-58
2022-12-14T12:52:34.239Z,-58
2022-12-14T12:55:08.201Z,-60
2022-12-14T12:57:45.344Z,-61
2022-12-14T13:00:18.484Z,-59
2022-12-14T13:03:11.306Z,-60
2022-12-14T13:05:49.163Z,-59
2022-12-14T13:08:39.324Z,-59
2022-12-14T13:11:26.197Z,-61
2022-12-14T13:14:13.390Z,-61
2022-12-14T13:16:42.075Z,-60
2022-12-14T13:19:49.921Z,-61
2022-12-14T13:22:15.104Z,-59
2022-12-14T13:24:46.153Z,-60
2022-12-14T13:27:30.003Z,-60
2022-12-14T13:30:15.272Z,-60
2022-12-14T13:33:16.718Z,-60
2022-12-14T13:36:05.030Z,-61
2022-12-14T13:38:50.713Z,-61
2022-12-14T13:41:49.658Z,-61
2022-12-14T13:44:16.107Z,-61
2022-12-14T13:46:43.238Z,-61
2022-12-14T13:49:20.500Z,-59
2022-12-14T13:51:50.555Z,-60
2022-12-14T13:54:39.162Z,-60
2022-12-14T13:57:08.259Z,-59
2022-12-14T13:59:34.736Z,-60
2022-12-14T14:02:03.721Z,-59
2022-12-14T14:04:31.228Z,-59
2022-12-14T14:07:23.533Z,-61
2022-12-14T14:09:56.397Z,-60
2022-12-14T14:12:34.881Z,-60
2022-12-14T14:15:26.609Z,-60
2022-12-14T14:18:05.577Z,-59
2022-12-14T14:20:44.668Z,-60
2022-12-14T14:23:14.460Z,-60
2022-12-14T14:25:49.490Z,-61
2022-12-14T14:28:22.699Z,-60
2022-12-14T14:30:53.067Z,-60
2022-12-14T14:33:46.170Z,-60
2022-12-14T14:36:36.892Z,-60
2022-12-14T14:39:54.977Z,-58
2022-12-14T14:42:20.487Z,-59
2022-12-14T14:44:53.781Z,-59
2022-12-14T14:47:26.792Z,-60
2022-12-14T14:50:00.922Z,-61
2022-12-14T14:52:39.589Z,-60
2022-12-14T14:55:53.420Z,-60
2022-12-14T14:58:39.329Z,-59
2022-12-14T15:01:06.321Z,-59
2022-12-14T15:03:41.296Z,-61
2022-12-14T15:06:21.308Z,-60
2022-12-14T15:08:57.330Z,-60
2022-12-14T15:11:26.779Z,-59
2022-12-14T15:14:06.670Z,-60
2022-12-14T15:16:43.161Z,-60
2022-12-14T15:19:24.014Z,-61
2022-12-14T15:21:59.085Z,-60
2022-12-14T15:24:27.216Z,-59
2022-12-14T15:26:54.147Z,-60
2022-12-14T15:29:28.225Z,-60
2022-12-14T15:32:00.567Z,-62
2022-12-14T15:34:27.714Z,-59
2022-12-14T15:36:54.927Z,-59
2022-12-14T15:39:28.458Z,-60
2022-12-14T15:42:10.126Z,-60
2022-12-14T15:44:36.982Z,-59
2022-12-14T15:47:03.726Z,-60
2022-12-14T15:49:30.209Z,-59
2022-12-14T15:51:59.051Z,-59
2022-12-14T15:54:26.289Z,-60
2022-12-14T15:56:57.810Z,-61
2022-12-14T15:59:35.283Z,-62
2022-12-14T16:02:18.787Z,-61
2022-12-14T16:04:46.310Z,-58
2022-12-14T16:07:23.172Z,-61
2022-12-14T16:09:58.408Z,-60
2022-12-14T16:12:44.150Z,-60
2022-12-14T16:15:20.813Z,-59
2022-12-14T16:17:47.507Z,-60
2022-12-14T16:20:14.693Z,-59
2022-12-14T16:22:41.649Z,-60
2022-12-14T16:25:08.082Z,-60
2022-12-14T16:27:40.000Z,-61
2022-12-14T16:30:07.591Z,-60
2022-12-14T16:32:34.171Z,-62
2022-12-14T16:35:01.485Z,-61
2022-12-14T16:37:33.148Z,-60
2022-12-14T16:40:00.378Z,-60
2022-12-14T16:42:28.022Z,-59
2022-12-14T16:44:54.902Z,-59
2022-12-14T16:47:21.577Z,-64
2022-12-14T16:49:48.066Z,-61
2022-12-14T16:52:21.532Z,-60
2022-12-14T16:55:17.143Z,-60
2022-12-14T16:57:49.505Z,-60
2022-12-14T17:00:24.973Z,-60
2022-12-14T17:03:23.078Z,-58
2022-12-14T17:05:56.789Z,-58
2022-12-14T17:08:23.289Z,-58
2022-12-14T17:10:50.157Z,-60
2022-12-14T17:13:16.972Z,-59
2022-12-14T17:16:18.142Z,-58
2022-12-14T17:18:44.749Z,-61
2022-12-14T17:21:22.701Z,-60
2022-12-14T17:23:49.388Z,-59
2022-12-14T17:26:28.559Z,-58
2022-12-14T17:28:55.383Z,-60
2022-12-14T17:31:25.111Z,-61
2022-12-14T17:33:52.910Z,-61
2022-12-14T17:36:19.419Z,-60
2022-12-14T17:38:46.097Z,-59
2022-12-14T17:41:26.390Z,-60
2022-12-14T17:43:57.417Z,-61
2022-12-14T17:46:25.243Z,-60
2022-12-14T17:48:51.842Z,-60
2022-12-14T17:51:25.392Z,-61
2022-12-14T17:53:57.411Z,-60
2022-12-14T17:56:24.536Z,-61
2022-12-14T17:58:51.145Z,-60
2022-12-14T18:01:22.785Z,-60
2022-12-14T18:03:50.784Z,-60
2022-12-14T18:06:18.383Z,-60
2022-12-14T18:08:46.103Z,-61
2022-12-14T18:11:18.591Z,-60
2022-12-14T18:13:45.307Z,-60
2022-12-14T18:16:18.955Z,-61
2022-12-14T18:18:45.997Z,-60
2022-12-14T18:21:25.262Z,-60
2022-12-14T18:23:52.658Z,-59
2022-12-14T18:26:21.219Z,-60
2022-12-14T18:28:55.770Z,-61
2022-12-14T18:31:36.067Z,-65
2022-12-14T18:34:03.530Z,-63
2022-12-14T18:36:30.773Z,-65
2022-12-14T18:38:57.670Z,-65
2022-12-14T18:41:26.173Z,-65
2022-12-14T18:43:54.337Z,-64
2022-12-14T18:46:20.898Z,-65
2022-12-14T18:48:47.755Z,-64
2022-12-14T18:51:23.545Z,-64
2022-12-14T18:53:58.167Z,-64
2022-12-14T18:56:28.064Z,-65
2022-12-14T18:58:54.699Z,-65
2022-12-14T19:01:24.256Z,-65
2022-12-14T19:03:51.198Z,-63
2022-12-14T19:09:09.586Z,-65
2022-12-14T19:11:42.110Z,-65
2022-12-14T19:14:10.057Z,-66
2022-12-14T19:16:37.076Z,-65
2022-12-14T19:19:03.769Z,-65
2022-12-14T19:21:31.785Z,-65
2022-12-14T19:23:59.703Z,-65
2022-12-14T19:26:28.387Z,-64
2022-12-14T19:28:55.223Z,-66
2022-12-14T19:31:21.784Z,-64
2022-12-14T19:33:48.411Z,-65
2022-12-14T19:36:15.211Z,-64
2022-12-14T19:38:41.739Z,-66
2022-12-14T19:41:11.092Z,-64
2022-12-14T19:43:38.463Z,-65
2022-12-14T19:46:06.908Z,-64
2022-12-14T19:48:33.677Z,-65
2022-12-14T19:51:04.788Z,-65
2022-12-14T19:53:33.449Z,-63
2022-12-14T19:56:00.757Z,-65
2022-12-14T19:58:28.663Z,-65
2022-12-14T20:00:55.842Z,-64
2022-12-14T20:03:23.660Z,-65
2022-12-14T20:05:58.608Z,-64
2022-12-14T20:08:26.218Z,-63
2022-12-14T20:10:53.128Z,-65
2022-12-14T20:13:23.522Z,-65
2022-12-14T20:15:59.777Z,-65
2022-12-14T20:18:27.565Z,-64
2022-12-14T20:21:01.363Z,-65
2022-12-14T20:23:28.002Z,-64
2022-12-14T20:26:00.256Z,-65
2022-12-14T20:28:26.825Z,-65
2022-12-14T20:30:53.775Z,-64
2022-12-14T20:33:22.886Z,-66
2022-12-14T20:35:53.153Z,-65
2022-12-14T20:38:19.681Z,-65
2022-12-14T20:40:46.200Z,-64
2022-12-14T20:43:12.781Z,-63
2022-12-14T20:45:41.253Z,-65
2022-12-14T20:48:08.570Z,-65
2022-12-14T20:50:37.276Z,-63
2022-12-14T20:53:04.707Z,-64
2022-12-14T20:55:31.450Z,-64
2022-12-14T20:57:57.966Z,-64
2022-12-14T21:00:24.449Z,-64
2022-12-14T21:02:51.193Z,-64
2022-12-14T21:05:17.903Z,-63
2022-12-14T21:07:44.389Z,-64
2022-12-14T21:10:11.229Z,-65
2022-12-14T21:12:37.705Z,-63
2022-12-14T21:15:04.784Z,-64
2022-12-14T21:17:31.357Z,-65
2022-12-14T21:19:57.890Z,-65
2022-12-14T21:22:27.278Z,-63
2022-12-14T21:25:03.587Z,-66
2022-12-14T21:27:32.160Z,-65
2022-12-14T21:30:00.359Z,-64
2022-12-14T21:32:27.286Z,-63
2022-12-14T21:34:53.750Z,-66
2022-12-14T21:37:20.557Z,-65
2022-12-14T21:39:53.804Z,-65
2022-12-14T21:42:23.397Z,-66
2022-12-14T21:44:51.320Z,-64
2022-12-14T21:47:20.769Z,-64
2022-12-14T21:49:47.865Z,-65
2022-12-14T21:52:20.338Z,-65
2022-12-14T21:54:47.040Z,-64
2022-12-14T21:57:33.748Z,-64
2022-12-14T22:00:00.394Z,-66
2022-12-14T22:02:27.738Z,-65
2022-12-14T22:05:00.999Z,-65
2022-12-14T22:07:32.415Z,-65
2022-12-14T22:09:59.047Z,-66
2022-12-14T22:12:25.675Z,-65
2022-12-14T22:14:52.148Z,-65
2022-12-14T22:17:18.729Z,-63
2022-12-14T22:19:45.308Z,-64
2022-12-14T22:22:16.373Z,-64
2022-12-14T22:24:43.277Z,-63
2022-12-14T22:27:11.862Z,-63
2022-12-14T22:29:38.355Z,-64
2022-12-14T22:32:05.557Z,-63
2022-12-14T22:34:32.070Z,-64
2022-12-14T22:36:58.594Z,-64
2022-12-14T22:39:25.064Z,-63
2022-12-14T22:41:51.555Z,-65
2022-12-14T22:44:18.042Z,-63
2022-12-14T22:46:44.685Z,-64
2022-12-14T22:49:16.293Z,-66
2022-12-14T22:51:42.825Z,-65
2022-12-14T22:54:11.432Z,-65
2022-12-14T22:56:46.553Z,-64
2022-12-14T22:59:19.646Z,-63
2022-12-14T23:01:49.614Z,-63
2022-12-14T23:04:16.944Z,-63
2022-12-14T23:06:43.573Z,-65
2022-12-14T23:09:29.063Z,-63
2022-12-14T23:12:18.287Z,-65
2022-12-14T23:15:06.203Z,-67
2022-12-14T23:17:51.071Z,-64
2022-12-14T23:20:35.868Z,-62
2022-12-14T23:23:24.666Z,-65
2022-12-14T23:26:09.643Z,-66
2022-12-14T23:28:54.957Z,-66
2022-12-14T23:31:40.385Z,-66
2022-12-14T23:34:25.888Z,-64
2022-12-14T23:37:13.859Z,-64
2022-12-14T23:40:03.223Z,-64
2022-12-14T23:42:48.097Z,-63
2022-12-14T23:45:33.348Z,-66
2022-12-14T23:48:18.239Z,-65
2022-12-14T23:51:03.089Z,-65
2022-12-14T23:53:50.077Z,-65
2022-12-14T23:56:36.117Z,-64
2022-12-14T23:59:24.971Z,-65
